createdAt,value
2018-08-10T00:00:53.515Z,1026.07
2018-08-10T00:01:53.513Z,1026.08
2018-08-10T00:02:53.513Z,1026.08
2018-08-10T00:03:53.507Z,1026.08
2018-08-10T00:04:53.506Z,1026.05
2018-08-10T00:05:53.503Z,1026.12
2018-08-10T00:06:53.501Z,1026.12
2018-08-10T00:07:53.499Z,1026.19
2018-08-10T00:08:53.542Z,1026.2
2018-08-10T00:09:53.494Z,1026.2
2018-08-10T00:10:53.492Z,1026.25
2018-08-10T00:11:53.491Z,1026.21
2018-08-10T00:12:53.494Z,1026.24
2018-08-10T00:13:53.487Z,1026.25
2018-08-10T00:14:53.486Z,1026.29
2018-08-10T00:15:53.484Z,1026.32
2018-08-10T00:16:53.481Z,1026.27
2018-08-10T00:17:53.479Z,1026.25
2018-08-10T00:18:53.481Z,1026.24
2018-08-10T00:19:53.478Z,1026.28
2018-08-10T00:20:53.472Z,1026.32
2018-08-10T00:21:53.477Z,1026.3
2018-08-10T00:22:53.469Z,1026.35
2018-08-10T00:23:53.466Z,1026.39
2018-08-10T00:24:53.464Z,1026.39
2018-08-10T00:25:53.462Z,1026.42
2018-08-10T00:26:53.460Z,1026.44
2018-08-10T00:27:53.457Z,1026.39
2018-08-10T00:28:53.456Z,1026.41
2018-08-10T00:29:53.456Z,1026.39
2018-08-10T00:30:53.451Z,1026.42
2018-08-10T00:31:53.448Z,1026.42
2018-08-10T00:32:53.451Z,1026.4
2018-08-10T00:33:53.445Z,1026.42
2018-08-10T00:34:53.443Z,1026.52
2018-08-10T00:35:53.442Z,1026.48
2018-08-10T00:36:53.438Z,1026.5
2018-08-10T00:37:53.439Z,1026.5
2018-08-10T00:38:53.433Z,1026.53
2018-08-10T00:39:53.431Z,1026.56
2018-08-10T00:40:53.429Z,1026.58
2018-08-10T00:41:53.429Z,1026.65
2018-08-10T00:42:53.424Z,1026.68
2018-08-10T00:43:53.425Z,1026.73
2018-08-10T00:44:53.420Z,1026.79
2018-08-10T00:45:53.417Z,1026.81
2018-08-10T00:46:53.415Z,1026.83
2018-08-10T00:47:53.414Z,1026.86
2018-08-10T00:48:53.411Z,1026.89
2018-08-10T00:49:53.408Z,1026.91
2018-08-10T00:50:53.405Z,1026.97
2018-08-10T00:51:53.405Z,1027.01
2018-08-10T00:52:53.402Z,1026.95
2018-08-10T00:53:53.399Z,1027.02
2018-08-10T00:54:53.397Z,1027.02
2018-08-10T00:55:53.396Z,1027.03
2018-08-10T00:56:53.392Z,1027.02
2018-08-10T00:57:53.389Z,1027.04
2018-08-10T00:58:53.387Z,1027.03
2018-08-10T00:59:53.386Z,1027.07
2018-08-10T01:00:53.383Z,1027.11
2018-08-10T01:01:53.381Z,1027.11
2018-08-10T01:02:53.378Z,1027.16
2018-08-10T01:03:53.377Z,1027.15
2018-08-10T01:04:53.373Z,1027.19
2018-08-10T01:05:53.372Z,1027.2
2018-08-10T01:06:53.369Z,1027.26
2018-08-10T01:07:53.366Z,1027.25
2018-08-10T01:08:53.364Z,1027.23
2018-08-10T01:09:53.363Z,1027.25
2018-08-10T01:10:53.359Z,1027.22
2018-08-10T01:11:53.356Z,1027.22
2018-08-10T01:12:53.357Z,1027.25
2018-08-10T01:13:53.362Z,1027.28
2018-08-10T01:14:53.350Z,1027.28
2018-08-10T01:15:53.346Z,1027.3
2018-08-10T01:16:53.346Z,1027.3
2018-08-10T01:17:53.343Z,1027.32
2018-08-10T01:18:53.338Z,1027.32
2018-08-10T01:19:53.337Z,1027.36
2018-08-10T01:20:53.334Z,1027.39
2018-08-10T01:21:53.333Z,1027.39
2018-08-10T01:22:53.329Z,1027.4
2018-08-10T01:23:53.329Z,1027.43
2018-08-10T01:24:53.324Z,1027.43
2018-08-10T01:25:53.572Z,1027.45
2018-08-10T01:26:53.322Z,1027.45
2018-08-10T01:27:53.317Z,1027.48
2018-08-10T01:28:53.375Z,1027.49
2018-08-10T01:29:53.312Z,1027.5
2018-08-10T01:30:53.309Z,1027.54
2018-08-10T01:31:53.308Z,1027.57
2018-08-10T01:32:53.305Z,1027.57
2018-08-10T01:33:53.307Z,1027.59
2018-08-10T01:34:53.299Z,1027.57
2018-08-10T01:35:53.296Z,1027.55
2018-08-10T01:36:53.294Z,1027.56
2018-08-10T01:37:53.292Z,1027.58
2018-08-10T01:38:53.289Z,1027.52
2018-08-10T01:39:53.286Z,1027.56
2018-08-10T01:40:53.283Z,1027.55
2018-08-10T01:41:53.281Z,1027.59
2018-08-10T01:42:53.278Z,1027.6
2018-08-10T01:43:53.276Z,1027.6
2018-08-10T01:44:53.272Z,1027.63
2018-08-10T01:45:53.270Z,1027.64
2018-08-10T01:46:53.273Z,1027.64
2018-08-10T01:47:53.265Z,1027.64
2018-08-10T01:48:53.264Z,1027.66
2018-08-10T01:49:53.260Z,1027.6
2018-08-10T01:50:53.259Z,1027.67
2018-08-10T01:51:53.255Z,1027.7
2018-08-10T01:52:53.262Z,1027.67
2018-08-10T01:53:53.251Z,1027.68
2018-08-10T01:54:53.247Z,1027.68
2018-08-10T01:55:53.245Z,1027.72
2018-08-10T01:56:53.246Z,1027.72
2018-08-10T01:57:53.239Z,1027.76
2018-08-10T01:58:53.237Z,1027.75
2018-08-10T01:59:53.234Z,1027.77
2018-08-10T02:00:53.231Z,1027.81
2018-08-10T02:01:53.230Z,1027.91
2018-08-10T02:02:53.226Z,1027.93
2018-08-10T02:03:53.223Z,1027.97
2018-08-10T02:04:53.221Z,1027.99
2018-08-10T02:05:53.218Z,1028
2018-08-10T02:06:53.214Z,1028.02
2018-08-10T02:07:53.211Z,1028.03
2018-08-10T02:08:53.209Z,1028.08
2018-08-10T02:09:53.206Z,1028.05
2018-08-10T02:10:53.203Z,1028.11
2018-08-10T02:11:53.201Z,1028.11
2018-08-10T02:12:53.198Z,1028.16
2018-08-10T02:13:53.195Z,1028.17
2018-08-10T02:14:53.193Z,1028.22
2018-08-10T02:15:53.194Z,1028.2
2018-08-10T02:16:53.188Z,1028.25
2018-08-10T02:17:53.184Z,1028.27
2018-08-10T02:18:53.181Z,1028.25
2018-08-10T02:19:53.179Z,1028.27
2018-08-10T02:20:53.176Z,1028.28
2018-08-10T02:21:53.173Z,1028.26
2018-08-10T02:22:53.170Z,1028.28
2018-08-10T02:23:53.167Z,1028.26
2018-08-10T02:24:53.164Z,1028.24
2018-08-10T02:25:53.162Z,1028.31
2018-08-10T02:26:53.159Z,1028.28
2018-08-10T02:27:53.161Z,1028.27
2018-08-10T02:28:53.153Z,1028.24
2018-08-10T02:29:53.150Z,1028.21
2018-08-10T02:30:53.147Z,1028.24
2018-08-10T02:31:53.148Z,1028.21
2018-08-10T02:32:53.142Z,1028.18
2018-08-10T02:33:53.139Z,1028.21
2018-08-10T02:34:53.137Z,1028.21
2018-08-10T02:35:53.132Z,1028.19
2018-08-10T02:36:53.133Z,1028.23
2018-08-10T02:37:53.128Z,1028.22
2018-08-10T02:38:53.125Z,1028.22
2018-08-10T02:39:53.121Z,1028.24
2018-08-10T02:40:53.119Z,1028.3
2018-08-10T02:41:53.117Z,1028.26
2018-08-10T02:42:53.113Z,1028.32
2018-08-10T02:43:53.110Z,1028.33
2018-08-10T02:44:53.108Z,1028.37
2018-08-10T02:45:53.109Z,1028.34
2018-08-10T02:46:53.101Z,1028.36
2018-08-10T02:47:53.101Z,1028.37
2018-08-10T02:48:53.096Z,1028.42
2018-08-10T02:49:53.092Z,1028.4
2018-08-10T02:50:53.090Z,1028.43
2018-08-10T02:51:53.087Z,1028.45
2018-08-10T02:52:53.084Z,1028.49
2018-08-10T02:53:53.083Z,1028.48
2018-08-10T02:54:53.078Z,1028.5
2018-08-10T02:55:53.076Z,1028.48
2018-08-10T02:56:53.074Z,1028.48
2018-08-10T02:57:53.070Z,1028.52
2018-08-10T02:58:53.067Z,1028.58
2018-08-10T02:59:53.064Z,1028.57
2018-08-10T03:00:53.062Z,1028.57
2018-08-10T03:01:53.058Z,1028.62
2018-08-10T03:02:53.055Z,1028.66
2018-08-10T03:03:53.053Z,1028.69
2018-08-10T03:04:53.049Z,1028.67
2018-08-10T03:05:53.046Z,1028.64
2018-08-10T03:06:53.044Z,1028.62
2018-08-10T03:07:53.047Z,1028.6
2018-08-10T03:08:53.038Z,1028.63
2018-08-10T03:09:53.035Z,1028.65
2018-08-10T03:10:53.037Z,1028.66
2018-08-10T03:11:53.029Z,1028.63
2018-08-10T03:12:53.026Z,1028.66
2018-08-10T03:13:53.023Z,1028.64
2018-08-10T03:14:53.020Z,1028.6
2018-08-10T03:15:53.018Z,1028.62
2018-08-10T03:16:53.014Z,1028.63
2018-08-10T03:17:53.016Z,1028.65
2018-08-10T03:18:53.009Z,1028.65
2018-08-10T03:19:53.004Z,1028.63
2018-08-10T03:20:53.003Z,1028.62
2018-08-10T03:21:53.000Z,1028.65
2018-08-10T03:22:52.997Z,1028.65
2018-08-10T03:23:52.995Z,1028.65
2018-08-10T03:24:52.992Z,1028.65
2018-08-10T03:25:52.990Z,1028.6
2018-08-10T03:26:52.985Z,1028.55
2018-08-10T03:27:52.983Z,1028.53
2018-08-10T03:28:52.983Z,1028.53
2018-08-10T03:29:52.977Z,1028.56
2018-08-10T03:30:52.976Z,1028.56
2018-08-10T03:31:52.974Z,1028.55
2018-08-10T03:32:52.972Z,1028.62
2018-08-10T03:33:52.966Z,1028.62
2018-08-10T03:34:52.963Z,1028.66
2018-08-10T03:35:52.960Z,1028.69
2018-08-10T03:36:52.958Z,1028.66
2018-08-10T03:37:52.953Z,1028.65
2018-08-10T03:38:52.952Z,1028.66
2018-08-10T03:39:52.950Z,1028.63
2018-08-10T03:40:52.948Z,1028.63
2018-08-10T03:41:52.943Z,1028.61
2018-08-10T03:42:52.941Z,1028.57
2018-08-10T03:43:52.938Z,1028.52
2018-08-10T03:44:52.935Z,1028.51
2018-08-10T03:45:52.932Z,1028.53
2018-08-10T03:46:52.929Z,1028.51
2018-08-10T03:47:52.927Z,1028.54
2018-08-10T03:48:52.924Z,1028.54
2018-08-10T03:49:52.986Z,1028.55
2018-08-10T03:50:52.920Z,1028.57
2018-08-10T03:51:52.917Z,1028.59
2018-08-10T03:52:52.913Z,1028.61
2018-08-10T03:53:52.912Z,1028.64
2018-08-10T03:54:52.909Z,1028.62
2018-08-10T03:55:52.906Z,1028.62
2018-08-10T03:56:52.903Z,1028.64
2018-08-10T03:57:52.901Z,1028.6
2018-08-10T03:58:52.898Z,1028.55
2018-08-10T03:59:52.895Z,1028.6
2018-08-10T04:00:52.893Z,1028.61
2018-08-10T04:01:53.141Z,1028.64
2018-08-10T04:02:52.888Z,1028.66
2018-08-10T04:03:52.885Z,1028.73
2018-08-10T04:04:52.883Z,1028.72
2018-08-10T04:05:52.881Z,1028.71
2018-08-10T04:06:52.877Z,1028.69
2018-08-10T04:07:52.876Z,1028.7
2018-08-10T04:08:52.875Z,1028.67
2018-08-10T04:09:52.870Z,1028.65
2018-08-10T04:10:52.867Z,1028.66
2018-08-10T04:11:52.874Z,1028.66
2018-08-10T04:12:52.863Z,1028.66
2018-08-10T04:13:52.861Z,1028.64
2018-08-10T04:14:52.857Z,1028.61
2018-08-10T04:15:52.855Z,1028.58
2018-08-10T04:16:52.854Z,1028.56
2018-08-10T04:17:52.852Z,1028.59
2018-08-10T04:18:52.847Z,1028.6
2018-08-10T04:19:52.852Z,1028.62
2018-08-10T04:20:52.844Z,1028.64
2018-08-10T04:21:52.841Z,1028.65
2018-08-10T04:22:52.841Z,1028.66
2018-08-10T04:23:52.837Z,1028.72
2018-08-10T04:24:52.834Z,1028.72
2018-08-10T04:25:52.831Z,1028.75
2018-08-10T04:26:52.830Z,1028.75
2018-08-10T04:27:52.828Z,1028.73
2018-08-10T04:28:52.825Z,1028.76
2018-08-10T04:29:52.823Z,1028.73
2018-08-10T04:30:52.820Z,1028.71
2018-08-10T04:31:52.821Z,1028.74
2018-08-10T04:32:53.069Z,1028.7
2018-08-10T04:33:52.818Z,1028.73
2018-08-10T04:34:52.812Z,1028.75
2018-08-10T04:35:52.818Z,1028.74
2018-08-10T04:36:52.812Z,1028.71
2018-08-10T04:37:52.805Z,1028.77
2018-08-10T04:38:52.803Z,1028.77
2018-08-10T04:39:52.799Z,1028.76
2018-08-10T04:40:52.798Z,1028.75
2018-08-10T04:41:52.796Z,1028.8
2018-08-10T04:42:52.795Z,1028.81
2018-08-10T04:43:52.792Z,1028.87
2018-08-10T04:44:52.790Z,1028.93
2018-08-10T04:45:52.789Z,1028.98
2018-08-10T04:46:52.785Z,1028.95
2018-08-10T04:47:52.783Z,1028.97
2018-08-10T04:48:52.782Z,1029.02
2018-08-10T04:49:52.780Z,1029.01
2018-08-10T04:50:52.778Z,1029.08
2018-08-10T04:51:52.774Z,1029.07
2018-08-10T04:52:52.774Z,1029.08
2018-08-10T04:53:52.777Z,1029.02
2018-08-10T04:54:52.769Z,1028.99
2018-08-10T04:55:52.767Z,1028.97
2018-08-10T04:56:52.767Z,1028.94
2018-08-10T04:57:52.764Z,1028.9
2018-08-10T04:58:52.762Z,1029
2018-08-10T04:59:52.761Z,1029
2018-08-10T05:00:52.760Z,1029
2018-08-10T05:01:52.756Z,1028.93
2018-08-10T05:02:52.779Z,1028.94
2018-08-10T05:03:52.754Z,1028.93
2018-08-10T05:04:52.750Z,1028.96
2018-08-10T05:05:52.748Z,1029.04
2018-08-10T05:06:52.747Z,1029.07
2018-08-10T05:07:52.745Z,1029.11
2018-08-10T05:08:52.742Z,1029.1
2018-08-10T05:09:52.833Z,1029.13
2018-08-10T05:10:52.738Z,1029.17
2018-08-10T05:11:52.737Z,1029.19
2018-08-10T05:12:52.734Z,1029.2
2018-08-10T05:13:52.732Z,1029.25
2018-08-10T05:14:52.731Z,1029.24
2018-08-10T05:15:52.729Z,1029.26
2018-08-10T05:16:52.727Z,1029.3
2018-08-10T05:17:52.725Z,1029.33
2018-08-10T05:18:52.728Z,1029.28
2018-08-10T05:19:52.723Z,1029.35
2018-08-10T05:20:52.719Z,1029.37
2018-08-10T05:21:52.718Z,1029.4
2018-08-10T05:22:52.716Z,1029.41
2018-08-10T05:23:52.713Z,1029.37
2018-08-10T05:24:52.711Z,1029.36
2018-08-10T05:25:52.803Z,1029.36
2018-08-10T05:26:52.711Z,1029.36
2018-08-10T05:27:52.707Z,1029.38
2018-08-10T05:28:52.705Z,1029.34
2018-08-10T05:29:52.703Z,1029.42
2018-08-10T05:30:52.701Z,1029.47
2018-08-10T05:31:52.699Z,1029.45
2018-08-10T05:32:52.698Z,1029.5
2018-08-10T05:33:52.696Z,1029.47
2018-08-10T05:34:52.771Z,1029.48
2018-08-10T05:35:52.696Z,1029.49
2018-08-10T05:36:52.691Z,1029.47
2018-08-10T05:37:52.689Z,1029.45
2018-08-10T05:38:52.687Z,1029.45
2018-08-10T05:39:52.686Z,1029.49
2018-08-10T05:40:52.686Z,1029.47
2018-08-10T05:41:52.688Z,1029.44
2018-08-10T05:42:52.681Z,1029.39
2018-08-10T05:43:52.729Z,1029.37
2018-08-10T05:44:52.678Z,1029.39
2018-08-10T05:45:52.679Z,1029.41
2018-08-10T05:46:52.736Z,1029.4
2018-08-10T05:47:52.681Z,1029.37
2018-08-10T05:48:52.675Z,1029.43
2018-08-10T05:49:52.727Z,1029.34
2018-08-10T05:50:52.678Z,1029.36
2018-08-10T05:51:52.670Z,1029.42
2018-08-10T05:52:52.667Z,1029.53
2018-08-10T05:53:52.665Z,1029.56
2018-08-10T05:54:52.663Z,1029.56
2018-08-10T05:55:52.663Z,1029.55
2018-08-10T05:56:52.660Z,1029.53
2018-08-10T05:57:52.660Z,1029.57
2018-08-10T05:58:52.659Z,1029.61
2018-08-10T05:59:52.658Z,1029.68
2018-08-10T06:00:52.657Z,1029.71
2018-08-10T06:01:52.655Z,1029.65
2018-08-10T06:02:52.654Z,1029.58
2018-08-10T06:03:52.811Z,1029.59
2018-08-10T06:04:52.653Z,1029.58
2018-08-10T06:05:52.655Z,1029.61
2018-08-10T06:06:52.650Z,1029.65
2018-08-10T06:07:52.648Z,1029.7
2018-08-10T06:08:52.649Z,1029.8
2018-08-10T06:09:52.648Z,1029.82
2018-08-10T06:10:52.649Z,1029.86
2018-08-10T06:11:52.645Z,1029.87
2018-08-10T06:12:52.648Z,1029.87
2018-08-10T06:13:52.643Z,1029.85
2018-08-10T06:14:52.642Z,1029.82
2018-08-10T06:15:52.642Z,1029.92
2018-08-10T06:16:52.640Z,1029.91
2018-08-10T06:17:52.640Z,1029.9
2018-08-10T06:18:52.639Z,1029.98
2018-08-10T06:19:52.681Z,1029.99
2018-08-10T06:20:52.637Z,1029.99
2018-08-10T06:21:52.636Z,1030.03
2018-08-10T06:22:52.651Z,1030.02
2018-08-10T06:23:52.635Z,1029.99
2018-08-10T06:24:52.637Z,1029.94
2018-08-10T06:25:52.633Z,1029.97
2018-08-10T06:26:52.634Z,1029.96
2018-08-10T06:27:52.761Z,1030.04
2018-08-10T06:28:52.633Z,1030.06
2018-08-10T06:29:52.629Z,1030.1
2018-08-10T06:30:52.629Z,1030.17
2018-08-10T06:31:52.634Z,1030.21
2018-08-10T06:32:52.630Z,1030.33
2018-08-10T06:33:52.730Z,1030.37
2018-08-10T06:34:52.628Z,1030.51
2018-08-10T06:35:52.629Z,1030.53
2018-08-10T06:36:52.627Z,1030.56
2018-08-10T06:37:52.625Z,1030.67
2018-08-10T06:38:52.624Z,1030.71
2018-08-10T06:39:52.661Z,1030.78
2018-08-10T06:40:52.623Z,1030.85
2018-08-10T06:41:52.622Z,1030.87
2018-08-10T06:42:52.623Z,1030.85
2018-08-10T06:43:52.619Z,1030.87
2018-08-10T06:44:52.686Z,1030.85
2018-08-10T06:45:52.618Z,1030.82
2018-08-10T06:46:52.617Z,1030.86
2018-08-10T06:47:52.615Z,1030.88
2018-08-10T06:48:52.614Z,1030.9
2018-08-10T06:49:52.617Z,1030.95
2018-08-10T06:50:52.613Z,1031.04
2018-08-10T06:51:52.612Z,1031.04
2018-08-10T06:52:52.610Z,1031.12
2018-08-10T06:53:52.610Z,1031.16
2018-08-10T06:54:52.608Z,1031.13
2018-08-10T06:55:52.748Z,1031.13
2018-08-10T06:56:52.606Z,1031.15
2018-08-10T06:57:52.607Z,1031.16
2018-08-10T06:58:52.610Z,1031.07
2018-08-10T06:59:52.603Z,1031.17
2018-08-10T07:00:52.605Z,1031.07
2018-08-10T07:01:52.601Z,1031.12
2018-08-10T07:02:52.599Z,1031.15
2018-08-10T07:03:52.598Z,1031.16
2018-08-10T07:04:52.602Z,1031.18
2018-08-10T07:05:52.595Z,1031.21
2018-08-10T07:06:52.594Z,1031.11
2018-08-10T07:07:52.712Z,1031.1
2018-08-10T07:08:52.592Z,1031.11
2018-08-10T07:09:52.590Z,1031.14
2018-08-10T07:10:52.593Z,1031.07
2018-08-10T07:11:52.588Z,1031.06
2018-08-10T07:12:52.587Z,1031.04
2018-08-10T07:13:52.588Z,1031.1
2018-08-10T07:14:52.584Z,1031.09
2018-08-10T07:15:52.583Z,1031.11
2018-08-10T07:16:52.582Z,1031.11
2018-08-10T07:17:52.580Z,1031.12
2018-08-10T07:18:52.581Z,1031.14
2018-08-10T07:19:52.590Z,1031.12
2018-08-10T07:20:52.576Z,1031.05
2018-08-10T07:21:52.580Z,1030.87
2018-08-10T07:22:52.574Z,1030.82
2018-08-10T07:23:52.574Z,1030.74
2018-08-10T07:24:52.572Z,1030.77
2018-08-10T07:25:52.574Z,1030.75
2018-08-10T07:26:52.571Z,1030.75
2018-08-10T07:27:52.570Z,1030.77
2018-08-10T07:28:52.576Z,1030.8
2018-08-10T07:29:52.573Z,1030.66
2018-08-10T07:30:52.570Z,1030.75
2018-08-10T07:31:52.573Z,1030.72
2018-08-10T07:32:52.568Z,1030.7
2018-08-10T07:33:52.568Z,1030.75
2018-08-10T07:34:52.568Z,1030.72
2018-08-10T07:35:52.569Z,1030.85
2018-08-10T07:36:52.567Z,1030.89
2018-08-10T07:37:52.566Z,1031
2018-08-10T07:38:52.567Z,1031.13
2018-08-10T07:39:52.566Z,1031.2
2018-08-10T07:40:52.567Z,1031.28
2018-08-10T07:41:52.565Z,1031.29
2018-08-10T07:42:52.565Z,1031.32
2018-08-10T07:43:52.565Z,1031.28
2018-08-10T07:44:52.565Z,1031.24
2018-08-10T07:45:52.565Z,1031.21
2018-08-10T07:46:52.564Z,1031.24
2018-08-10T07:47:52.564Z,1031.27
2018-08-10T07:48:52.564Z,1031.28
2018-08-10T07:49:52.564Z,1031.21
2018-08-10T07:50:52.564Z,1031.23
2018-08-10T07:51:52.565Z,1031.2
2018-08-10T07:52:52.564Z,1031.13
2018-08-10T07:53:52.563Z,1031.18
2018-08-10T07:54:52.564Z,1031.2
2018-08-10T07:55:52.566Z,1031.31
2018-08-10T07:56:52.564Z,1031.44
2018-08-10T07:57:52.564Z,1031.48
2018-08-10T07:58:52.565Z,1031.52
2018-08-10T07:59:52.567Z,1031.56
2018-08-10T08:00:52.562Z,1031.56
2018-08-10T08:01:52.564Z,1031.48
2018-08-10T08:02:52.564Z,1031.58
2018-08-10T08:03:52.564Z,1031.53
2018-08-10T08:04:52.562Z,1031.49
2018-08-10T08:05:52.566Z,1031.51
2018-08-10T08:06:52.581Z,1031.58
2018-08-10T08:07:52.581Z,1031.68
2018-08-10T08:08:52.566Z,1031.63
2018-08-10T08:09:52.564Z,1031.62
2018-08-10T08:10:52.815Z,1031.63
2018-08-10T08:11:52.564Z,1031.68
2018-08-10T08:12:52.568Z,1031.64
2018-08-10T08:13:52.567Z,1031.71
2018-08-10T08:14:52.564Z,1031.8
2018-08-10T08:15:52.567Z,1031.72
2018-08-10T08:16:52.563Z,1031.75
2018-08-10T08:17:52.575Z,1031.72
2018-08-10T08:18:52.566Z,1031.73
2018-08-10T08:19:52.673Z,1031.67
2018-08-10T08:20:52.564Z,1031.6
2018-08-10T08:21:52.563Z,1031.61
2018-08-10T08:22:52.564Z,1031.57
2018-08-10T08:23:52.566Z,1031.54
2018-08-10T08:24:52.564Z,1031.41
2018-08-10T08:25:52.565Z,1031.34
2018-08-10T08:26:52.564Z,1031.29
2018-08-10T08:27:52.566Z,1031.26
2018-08-10T08:28:52.568Z,1031.25
2018-08-10T08:29:52.566Z,1031.13
2018-08-10T08:30:52.567Z,1031.11
2018-08-10T08:31:52.568Z,1030.99
2018-08-10T08:32:52.570Z,1030.88
2018-08-10T08:33:52.569Z,1030.81
2018-08-10T08:34:52.807Z,1030.63
2018-08-10T08:35:52.573Z,1030.52
2018-08-10T08:36:52.625Z,1030.46
2018-08-10T08:37:52.579Z,1030.36
2018-08-10T08:38:52.578Z,1030.32
2018-08-10T08:39:52.580Z,1030.34
2018-08-10T08:40:52.617Z,1030.41
2018-08-10T08:41:52.585Z,1030.43
2018-08-10T08:42:52.586Z,1030.51
2018-08-10T08:43:52.589Z,1030.52
2018-08-10T08:44:52.590Z,1030.53
2018-08-10T08:45:52.872Z,1030.59
2018-08-10T08:46:52.599Z,1030.62
2018-08-10T08:47:52.601Z,1030.64
2018-08-10T08:48:52.600Z,1030.61
2018-08-10T08:49:52.610Z,1030.57
2018-08-10T08:50:52.606Z,1030.54
2018-08-10T08:51:52.655Z,1030.6
2018-08-10T08:52:52.615Z,1030.63
2018-08-10T08:53:52.640Z,1030.59
2018-08-10T08:54:52.617Z,1030.63
2018-08-10T08:55:52.620Z,1030.62
2018-08-10T08:56:52.623Z,1030.55
2018-08-10T08:57:52.627Z,1030.46
2018-08-10T08:58:52.630Z,1030.42
2018-08-10T08:59:52.666Z,1030.36
2018-08-10T09:00:52.636Z,1030.33
2018-08-10T09:01:52.640Z,1030.36
2018-08-10T09:02:52.641Z,1030.4
2018-08-10T09:03:52.646Z,1030.4
2018-08-10T09:04:52.649Z,1030.49
2018-08-10T09:05:52.654Z,1030.44
2018-08-10T09:06:52.656Z,1030.4
2018-08-10T09:07:52.665Z,1030.36
2018-08-10T09:08:52.663Z,1030.33
2018-08-10T09:09:52.669Z,1030.32
2018-08-10T09:10:52.674Z,1030.34
2018-08-10T09:11:52.675Z,1030.26
2018-08-10T09:12:52.679Z,1030.26
2018-08-10T09:13:52.681Z,1030.3
2018-08-10T09:14:52.685Z,1030.37
2018-08-10T09:15:52.689Z,1030.37
2018-08-10T09:16:52.696Z,1030.38
2018-08-10T09:17:52.697Z,1030.47
2018-08-10T09:18:52.701Z,1030.49
2018-08-10T09:19:52.704Z,1030.5
2018-08-10T09:20:52.709Z,1030.66
2018-08-10T09:21:52.711Z,1030.77
2018-08-10T09:22:52.716Z,1030.84
2018-08-10T09:23:52.719Z,1030.97
2018-08-10T09:24:52.723Z,1030.98
2018-08-10T09:25:52.726Z,1031.08
2018-08-10T09:26:52.772Z,1031.13
2018-08-10T09:27:52.739Z,1031.16
2018-08-10T09:28:52.737Z,1031.22
2018-08-10T09:29:52.741Z,1031.24
2018-08-10T09:30:52.745Z,1031.17
2018-08-10T09:31:52.748Z,1031.15
2018-08-10T09:32:52.749Z,1031.05
2018-08-10T09:33:52.754Z,1031.11
2018-08-10T09:34:52.757Z,1031.07
2018-08-10T09:35:52.767Z,1031.11
2018-08-10T09:36:52.762Z,1031.14
2018-08-10T09:37:52.767Z,1031.12
2018-08-10T09:38:52.770Z,1031.12
2018-08-10T09:39:52.772Z,1031.06
2018-08-10T09:40:52.776Z,1031
2018-08-10T09:41:52.779Z,1031
2018-08-10T09:42:52.783Z,1030.9
2018-08-10T09:43:52.786Z,1030.92
2018-08-10T09:44:52.790Z,1030.95
2018-08-10T09:45:52.793Z,1030.97
2018-08-10T09:46:52.796Z,1031.01
2018-08-10T09:47:52.803Z,1030.9
2018-08-10T09:48:52.801Z,1030.83
2018-08-10T09:49:52.806Z,1030.79
2018-08-10T09:50:52.808Z,1030.83
2018-08-10T09:51:52.850Z,1030.84
2018-08-10T09:52:52.816Z,1030.84
2018-08-10T09:53:52.817Z,1030.88
2018-08-10T09:54:52.833Z,1030.92
2018-08-10T09:55:52.826Z,1030.87
2018-08-10T09:56:52.829Z,1030.83
2018-08-10T09:57:52.887Z,1030.82
2018-08-10T09:58:52.836Z,1030.76
2018-08-10T09:59:52.921Z,1030.75
2018-08-10T10:00:52.847Z,1030.68
2018-08-10T10:01:52.846Z,1030.63
2018-08-10T10:02:52.849Z,1030.64
2018-08-10T10:03:52.854Z,1030.59
2018-08-10T10:04:52.857Z,1030.68
2018-08-10T10:05:52.861Z,1030.66
2018-08-10T10:06:52.865Z,1030.61
2018-08-10T10:07:52.869Z,1030.52
2018-08-10T10:08:52.885Z,1030.49
2018-08-10T10:09:52.877Z,1030.42
2018-08-10T10:10:52.881Z,1030.42
2018-08-10T10:11:52.884Z,1030.34
2018-08-10T10:12:52.889Z,1030.32
2018-08-10T10:13:52.898Z,1030.35
2018-08-10T10:14:52.898Z,1030.35
2018-08-10T10:15:52.903Z,1030.3
2018-08-10T10:16:52.907Z,1030.26
2018-08-10T10:17:52.910Z,1030.33
2018-08-10T10:18:52.915Z,1030.39
2018-08-10T10:19:52.919Z,1030.31
2018-08-10T10:20:52.934Z,1030.32
2018-08-10T10:21:52.928Z,1030.34
2018-08-10T10:22:52.934Z,1030.33
2018-08-10T10:23:52.940Z,1030.22
2018-08-10T10:24:52.942Z,1030.17
2018-08-10T10:25:52.948Z,1030.16
2018-08-10T10:26:52.952Z,1030.06
2018-08-10T10:27:52.957Z,1030
2018-08-10T10:28:52.965Z,1029.97
2018-08-10T10:29:52.968Z,1030
2018-08-10T10:30:52.972Z,1029.99
2018-08-10T10:31:52.977Z,1030
2018-08-10T10:32:52.983Z,1030.02
2018-08-10T10:33:52.989Z,1029.94
2018-08-10T10:34:52.993Z,1029.96
2018-08-10T10:35:52.998Z,1029.96
2018-08-10T10:36:53.004Z,1029.97
2018-08-10T10:37:53.010Z,1030.03
2018-08-10T10:38:53.015Z,1030.13
2018-08-10T10:39:53.026Z,1030.22
2018-08-10T10:40:53.026Z,1030.31
2018-08-10T10:41:53.032Z,1030.33
2018-08-10T10:42:53.036Z,1030.35
2018-08-10T10:43:53.042Z,1030.37
2018-08-10T10:44:53.047Z,1030.34
2018-08-10T10:45:53.052Z,1030.4
2018-08-10T10:46:53.057Z,1030.27
2018-08-10T10:47:53.063Z,1030.28
2018-08-10T10:48:53.067Z,1030.24
2018-08-10T10:49:53.074Z,1030.23
2018-08-10T10:50:53.147Z,1030.18
2018-08-10T10:51:53.084Z,1030.23
2018-08-10T10:52:53.089Z,1030.18
2018-08-10T10:53:53.095Z,1030.14
2018-08-10T10:54:53.100Z,1030.08
2018-08-10T10:55:53.105Z,1030.08
2018-08-10T10:56:53.198Z,1030.08
2018-08-10T10:57:53.369Z,1030.03
2018-08-10T10:59:53.127Z,1030.15
2018-08-10T11:00:53.133Z,1030.23
2018-08-10T11:01:53.139Z,1030.27
2018-08-10T11:02:53.145Z,1030.25
2018-08-10T11:03:53.150Z,1030.27
2018-08-10T11:04:53.156Z,1030.34
2018-08-10T11:05:53.161Z,1030.36
2018-08-10T11:06:53.167Z,1030.39
2018-08-10T11:07:53.172Z,1030.43
2018-08-10T11:08:53.178Z,1030.46
2018-08-10T11:09:53.185Z,1030.5
2018-08-10T11:10:53.189Z,1030.5
2018-08-10T11:11:53.194Z,1030.53
2018-08-10T11:12:53.200Z,1030.54
2018-08-10T11:13:53.206Z,1030.58
2018-08-10T11:14:53.211Z,1030.65
2018-08-10T11:15:53.217Z,1030.64
2018-08-10T11:16:53.222Z,1030.69
2018-08-10T11:17:53.251Z,1030.62
2018-08-10T11:18:53.237Z,1030.64
2018-08-10T11:19:53.240Z,1030.57
2018-08-10T11:20:53.245Z,1030.5
2018-08-10T11:21:53.250Z,1030.51
2018-08-10T11:22:53.255Z,1030.47
2018-08-10T11:23:53.279Z,1030.55
2018-08-10T11:24:53.267Z,1030.61
2018-08-10T11:25:53.369Z,1030.64
2018-08-10T11:26:53.280Z,1030.68
2018-08-10T11:27:53.295Z,1030.71
2018-08-10T11:28:53.287Z,1030.78
2018-08-10T11:29:53.295Z,1030.77
2018-08-10T11:30:53.299Z,1030.78
2018-08-10T11:31:53.350Z,1030.89
2018-08-10T11:32:53.309Z,1030.83
2018-08-10T11:33:53.316Z,1030.77
2018-08-10T11:34:53.321Z,1030.79
2018-08-10T11:35:53.326Z,1030.75
2018-08-10T11:36:53.330Z,1030.79
2018-08-10T11:37:53.337Z,1030.82
2018-08-10T11:38:53.342Z,1030.74
2018-08-10T11:39:53.346Z,1030.77
2018-08-10T11:40:53.390Z,1030.77
2018-08-10T11:41:53.357Z,1030.8
2018-08-10T11:42:53.363Z,1030.83
2018-08-10T11:43:53.368Z,1030.82
2018-08-10T11:44:53.389Z,1030.92
2018-08-10T11:45:53.380Z,1030.98
2018-08-10T11:46:53.384Z,1031.01
2018-08-10T11:47:53.390Z,1031.14
2018-08-10T11:48:53.395Z,1031.28
2018-08-10T11:49:53.450Z,1031.31
2018-08-10T11:50:53.407Z,1031.33
2018-08-10T11:51:53.410Z,1031.33
2018-08-10T11:52:53.416Z,1031.42
2018-08-10T11:53:53.421Z,1031.49
2018-08-10T11:54:53.425Z,1031.47
2018-08-10T11:55:53.430Z,1031.54
2018-08-10T11:56:53.435Z,1031.65
2018-08-10T11:57:53.441Z,1031.74
2018-08-10T11:58:53.448Z,1031.83
2018-08-10T11:59:53.460Z,1031.81
2018-08-10T12:00:53.454Z,1031.88
2018-08-10T12:01:53.572Z,1031.98
2018-08-10T12:02:53.466Z,1031.94
2018-08-10T12:03:53.469Z,1032
2018-08-10T12:04:53.473Z,1031.97
2018-08-10T12:05:53.492Z,1032
2018-08-10T12:06:53.481Z,1032.05
2018-08-10T12:07:53.485Z,1032.08
2018-08-10T12:08:53.489Z,1032.02
2018-08-10T12:09:53.492Z,1032.06